Frankfurt, Germany
Current Conditions -  °F | °C
As of 3:20 PM on Thursday 27 Nov 2014 (Local Time) from EDDB Reporting Station
Few Clouds Few Clouds  
Wind Chill: 29°   Ceiling: Unl
Heat Index: 37°   Visibility: 5mi
Dew Point: 32°   Wind: 14mph
Humidity: 81%   Direction: 90°E
Pressure: 30"   Gusts: NA
Location:  52.34°N, 14.55°E
Report Text: EDDB 271420Z 09012KT 8000 FEW010 03/00 Q1016 NOSIG
Loading
Personal Weather Stations






























Interactive Weather Map New forecast layout! Learn more

10-Day Weather Forecast

Advertisements
Track Severe Weather on mobile